Portada
METAR-TAF:

METAR-TAF

Aeroports :

Caen, França

latitud: 49-11N, longitud: 000-27W, altitud: 78 m

Observació

L'informe es va fer fa 34 minuts, a les 21:30 UTC
Vent 5 kt del Sud-Est
Temperatura 19°C
Humitat 68%
Pressió 1016 hPa
Visibilitat 10 km o més
sense núvols per sota de 1500 mi sense presència de cumulonimbus.

METAR: LFRK 242130Z AUTO 14005KT CAVOK 19/13 Q1016

Hora: 00:04 (22:04 UTC)

Pronòstic

L'informe es va fer fa 8 hores i 4 minuts, a les 14:00 UTC
Pronòstic vàlid del 24 a les 15 UTC al 24 a les 24 UTC
Vent 5 kt amb direcció variable
Visibilitat 10 km o més
sense núvols per sota de 1500 mi sense presència de cumulonimbus.

TAF: LFRK 241400Z 2415/2424 VRB05KT CAVOK

Observacions i pronòstics meteorològics de més de 4000 aeroports (METAR i TAF).

Les estacions disponibles són els punts grocs i vermells al mapa.

Posi el ratolí al punt desitjat per veure el nom de l'estació.

Feu clic per veure les observacions i els pronòstics meteorològics.

Per canviar el mapa: feu clic els botons verds amb una creu de color negre per apropar; al botó verd amb un guió per allunyar la imatge; o en les fletxes verdes per a mapes adjacents.


METAR-TAF: